createdAt,value
2017-09-15T00:00:06.817Z,10.46
2017-09-15T00:01:06.777Z,10.40
2017-09-15T00:02:06.744Z,10.42
2017-09-15T00:03:06.709Z,10.49
2017-09-15T00:04:06.677Z,10.49
2017-09-15T00:05:06.644Z,10.54
2017-09-15T00:06:06.610Z,10.51
2017-09-15T00:07:06.577Z,10.46
2017-09-15T00:08:06.544Z,10.46
2017-09-15T00:09:06.509Z,10.35
2017-09-15T00:10:06.476Z,10.37
2017-09-15T00:11:06.441Z,10.38
2017-09-15T00:12:06.408Z,10.34
2017-09-15T00:13:06.376Z,10.42
2017-09-15T00:14:06.341Z,10.41
2017-09-15T00:15:06.307Z,10.37
2017-09-15T00:16:06.276Z,10.42
2017-09-15T00:17:06.241Z,10.37
2017-09-15T00:18:06.207Z,10.25
2017-09-15T00:19:07.003Z,10.26
2017-09-15T00:20:06.144Z,10.23
2017-09-15T00:21:06.101Z,10.33
2017-09-15T00:22:06.074Z,10.30
2017-09-15T00:23:06.041Z,10.31
2017-09-15T00:24:06.007Z,10.26
2017-09-15T00:25:05.974Z,10.22
2017-09-15T00:26:05.939Z,10.20
2017-09-15T00:27:05.909Z,10.20
2017-09-15T00:28:05.871Z,10.28
2017-09-15T00:29:06.291Z,10.19
2017-09-15T00:30:05.808Z,10.22
2017-09-15T00:31:05.767Z,10.15
2017-09-15T00:32:05.736Z,10.20
2017-09-15T00:33:05.705Z,10.15
2017-09-15T00:34:05.668Z,10.10
2017-09-15T00:35:05.638Z,10.05
2017-09-15T00:36:05.602Z,10.10
2017-09-15T00:37:05.571Z,10.12
2017-09-15T00:38:05.541Z,10.09
2017-09-15T00:39:05.502Z,9.99
2017-09-15T00:40:05.470Z,9.94
2017-09-15T00:41:05.434Z,9.97
2017-09-15T00:42:05.400Z,9.95
2017-09-15T00:43:05.367Z,9.89
2017-09-15T00:44:05.333Z,9.89
2017-09-15T00:45:05.302Z,9.92
2017-09-15T00:46:05.264Z,9.92
2017-09-15T00:47:05.231Z,9.87
2017-09-15T00:48:05.197Z,9.83
2017-09-15T00:49:05.165Z,9.79
2017-09-15T00:50:05.128Z,9.79
2017-09-15T00:51:05.095Z,9.83
2017-09-15T00:52:05.063Z,9.77
2017-09-15T00:53:05.029Z,9.77
2017-09-15T00:54:04.994Z,9.66
2017-09-15T00:55:04.959Z,9.76
2017-09-15T00:56:04.928Z,9.56
2017-09-15T00:57:04.892Z,9.56
2017-09-15T00:58:04.861Z,9.55
2017-09-15T00:59:04.825Z,9.58
2017-09-15T01:00:04.791Z,9.64
2017-09-15T01:01:04.759Z,9.61
2017-09-15T01:02:04.724Z,9.58
2017-09-15T01:03:04.690Z,9.56
2017-09-15T01:04:04.658Z,9.59
2017-09-15T01:05:04.623Z,9.58
2017-09-15T01:06:04.589Z,9.62
2017-09-15T01:07:04.556Z,9.64
2017-09-15T01:08:04.521Z,9.68
2017-09-15T01:09:04.488Z,9.68
2017-09-15T01:10:04.454Z,9.73
2017-09-15T01:11:04.421Z,9.68
2017-09-15T01:12:04.386Z,9.73
2017-09-15T01:13:04.354Z,9.73
2017-09-15T01:14:04.318Z,9.79
2017-09-15T01:15:04.286Z,9.86
2017-09-15T01:16:04.249Z,9.86
2017-09-15T01:17:04.219Z,9.91
2017-09-15T01:18:04.182Z,9.94
2017-09-15T01:19:04.150Z,9.92
2017-09-15T01:20:04.118Z,9.94
2017-09-15T01:21:04.082Z,9.95
2017-09-15T01:22:04.050Z,9.95
2017-09-15T01:23:04.017Z,9.98
2017-09-15T01:24:03.981Z,9.92
2017-09-15T01:25:03.949Z,9.92
2017-09-15T01:26:03.912Z,9.92
2017-09-15T01:27:03.882Z,9.95
2017-09-15T01:28:03.847Z,10.07
2017-09-15T01:29:03.816Z,10.01
2017-09-15T01:30:03.781Z,10.01
2017-09-15T01:31:03.746Z,10.02
2017-09-15T01:32:03.714Z,10.07
2017-09-15T01:33:03.681Z,10.07
2017-09-15T01:34:03.646Z,10.16
2017-09-15T01:35:03.613Z,10.12
2017-09-15T01:36:03.577Z,10.13
2017-09-15T01:37:03.548Z,10.13
2017-09-15T01:38:03.513Z,10.19
2017-09-15T01:39:03.480Z,10.09
2017-09-15T01:40:03.468Z,10.12
2017-09-15T01:41:03.421Z,10.07
2017-09-15T01:42:03.380Z,10.13
2017-09-15T01:43:03.347Z,10.13
2017-09-15T01:44:03.314Z,10.15
2017-09-15T01:45:03.280Z,10.09
2017-09-15T01:46:03.248Z,10.01
2017-09-15T01:47:03.214Z,9.98
2017-09-15T01:48:03.181Z,9.86
2017-09-15T01:49:03.147Z,9.91
2017-09-15T01:50:03.115Z,9.86
2017-09-15T01:51:03.081Z,9.76
2017-09-15T01:52:03.050Z,9.76
2017-09-15T01:53:03.017Z,9.76
2017-09-15T01:54:02.981Z,9.68
2017-09-15T01:55:02.946Z,9.66
2017-09-15T01:56:02.914Z,9.66
2017-09-15T01:57:02.882Z,9.68
2017-09-15T01:58:02.850Z,9.58
2017-09-15T01:59:02.815Z,9.56
2017-09-15T02:00:02.781Z,9.55
2017-09-15T02:01:02.750Z,9.54
2017-09-15T02:02:02.715Z,9.54
2017-09-15T02:03:02.682Z,9.48
2017-09-15T02:04:02.649Z,9.58
2017-09-15T02:05:02.616Z,9.47
2017-09-15T02:06:02.581Z,9.47
2017-09-15T02:07:02.546Z,9.44
2017-09-15T02:08:02.515Z,9.47
2017-09-15T02:09:02.483Z,9.43
2017-09-15T02:10:02.449Z,9.46
2017-09-15T02:11:02.408Z,9.39
2017-09-15T02:12:02.380Z,9.28
2017-09-15T02:13:02.347Z,9.39
2017-09-15T02:14:02.314Z,9.31
2017-09-15T02:15:02.280Z,9.25
2017-09-15T02:16:02.252Z,9.23
2017-09-15T02:17:02.214Z,9.21
2017-09-15T02:18:02.179Z,9.25
2017-09-15T02:19:02.145Z,9.18
2017-09-15T02:20:02.113Z,9.19
2017-09-15T02:21:02.078Z,9.22
2017-09-15T02:22:02.044Z,9.16
2017-09-15T02:23:02.011Z,9.19
2017-09-15T02:24:01.976Z,9.19
2017-09-15T02:25:01.943Z,9.25
2017-09-15T02:26:01.910Z,9.22
2017-09-15T02:27:01.875Z,9.23
2017-09-15T02:28:01.844Z,9.25
2017-09-15T02:29:01.819Z,9.25
2017-09-15T02:30:01.777Z,9.25
2017-09-15T02:31:01.745Z,9.29
2017-09-15T02:32:01.709Z,9.29
2017-09-15T02:33:01.676Z,9.32
2017-09-15T02:34:01.643Z,9.36
2017-09-15T02:35:01.608Z,9.34
2017-09-15T02:36:01.581Z,9.32
2017-09-15T02:37:01.543Z,9.31
2017-09-15T02:38:01.508Z,9.26
2017-09-15T02:39:01.474Z,9.37
2017-09-15T02:40:01.441Z,9.44
2017-09-15T02:41:01.406Z,9.44
2017-09-15T02:42:01.373Z,9.48
2017-09-15T02:43:01.340Z,9.44
2017-09-15T02:44:01.305Z,9.43
2017-09-15T02:45:01.273Z,9.48
2017-09-15T02:46:01.238Z,9.47
2017-09-15T02:47:01.204Z,9.48
2017-09-15T02:48:01.172Z,9.48
2017-09-15T02:49:01.138Z,9.58
2017-09-15T02:50:01.104Z,9.56
2017-09-15T02:51:01.081Z,9.62
2017-09-15T02:52:01.048Z,9.59
2017-09-15T02:53:01.006Z,9.69
2017-09-15T02:54:00.974Z,9.65
2017-09-15T02:55:00.934Z,9.76
2017-09-15T02:56:00.902Z,9.64
2017-09-15T02:57:00.870Z,9.72
2017-09-15T02:58:00.836Z,9.66
2017-09-15T02:59:00.803Z,9.65
2017-09-15T03:00:00.768Z,9.65
2017-09-15T03:01:00.736Z,9.62
2017-09-15T03:02:00.700Z,9.77
2017-09-15T03:03:00.667Z,9.77
2017-09-15T03:04:00.634Z,9.68
2017-09-15T03:05:00.604Z,9.76
2017-09-15T03:06:00.569Z,9.77
2017-09-15T03:07:00.532Z,9.84
2017-09-15T03:08:00.501Z,9.87
2017-09-15T03:09:00.472Z,9.89
2017-09-15T03:10:00.434Z,9.86
2017-09-15T03:11:00.399Z,9.91
2017-09-15T03:12:00.365Z,9.87
2017-09-15T03:13:00.333Z,9.89
2017-09-15T03:14:00.380Z,9.89
2017-09-15T03:15:00.268Z,9.87
2017-09-15T03:16:00.235Z,9.87
2017-09-15T03:17:00.382Z,9.87
2017-09-15T03:18:00.204Z,9.89
2017-09-15T03:19:00.129Z,9.87
2017-09-15T03:20:00.384Z,9.84
2017-09-15T03:21:00.068Z,9.89
2017-09-15T03:22:00.032Z,9.86
2017-09-15T03:22:59.997Z,9.91
2017-09-15T03:23:59.961Z,9.86
2017-09-15T03:24:59.932Z,9.86
2017-09-15T03:25:59.896Z,9.91
2017-09-15T03:26:59.860Z,9.84
2017-09-15T03:27:59.828Z,9.94
2017-09-15T03:28:59.794Z,9.86
2017-09-15T03:29:59.760Z,9.97
2017-09-15T03:30:59.733Z,9.91
2017-09-15T03:31:59.726Z,9.92
2017-09-15T03:32:59.659Z,9.92
2017-09-15T03:33:59.625Z,9.95
2017-09-15T03:34:59.594Z,9.95
2017-09-15T03:35:59.559Z,9.97
2017-09-15T03:36:59.526Z,9.95
2017-09-15T03:38:00.024Z,9.95
2017-09-15T03:38:59.458Z,9.95
2017-09-15T03:39:59.427Z,9.94
2017-09-15T03:40:59.393Z,9.92
2017-09-15T03:41:59.358Z,9.98
2017-09-15T03:42:59.324Z,9.99
2017-09-15T03:43:59.291Z,9.98
2017-09-15T03:44:59.257Z,9.95
2017-09-15T03:45:59.224Z,9.98
2017-09-15T03:46:59.191Z,9.98
2017-09-15T03:47:59.159Z,9.98
2017-09-15T03:48:59.124Z,9.98
2017-09-15T03:49:59.089Z,10.01
2017-09-15T03:50:59.061Z,9.91
2017-09-15T03:51:59.024Z,9.99
2017-09-15T03:52:58.992Z,10.05
2017-09-15T03:53:58.959Z,10.07
2017-09-15T03:54:58.922Z,10.01
2017-09-15T03:55:58.889Z,10.02
2017-09-15T03:56:58.857Z,10.01
2017-09-15T03:57:58.822Z,10.04
2017-09-15T03:58:58.789Z,10.04
2017-09-15T03:59:58.756Z,10.07
2017-09-15T04:00:58.723Z,10.04
2017-09-15T04:01:58.693Z,10.10
2017-09-15T04:02:58.658Z,10.07
2017-09-15T04:03:58.623Z,10.10
2017-09-15T04:04:58.590Z,10.01
2017-09-15T04:05:58.554Z,10.04
2017-09-15T04:06:58.522Z,10.04
2017-09-15T04:07:58.489Z,10.09
2017-09-15T04:08:58.455Z,10.12
2017-09-15T04:09:58.422Z,10.05
2017-09-15T04:10:58.389Z,9.99
2017-09-15T04:11:58.356Z,9.97
2017-09-15T04:12:58.322Z,9.98
2017-09-15T04:13:58.287Z,9.97
2017-09-15T04:14:58.256Z,9.95
2017-09-15T04:15:58.225Z,9.98
2017-09-15T04:16:58.189Z,9.98
2017-09-15T04:17:58.153Z,9.91
2017-09-15T04:18:58.121Z,9.94
2017-09-15T04:19:58.086Z,9.92
2017-09-15T04:20:58.054Z,9.98
2017-09-15T04:21:58.020Z,9.95
2017-09-15T04:22:57.987Z,9.99
2017-09-15T04:23:57.953Z,9.98
2017-09-15T04:24:57.922Z,9.98
2017-09-15T04:25:58.359Z,9.98
2017-09-15T04:26:57.858Z,9.98
2017-09-15T04:27:57.818Z,9.99
2017-09-15T04:28:57.786Z,9.97
2017-09-15T04:29:57.753Z,9.97
2017-09-15T04:30:57.719Z,9.97
2017-09-15T04:31:57.685Z,9.94
2017-09-15T04:32:57.652Z,9.97
2017-09-15T04:33:57.617Z,9.91
2017-09-15T04:34:57.585Z,10.04
2017-09-15T04:35:57.552Z,9.99
2017-09-15T04:36:57.519Z,9.94
2017-09-15T04:37:57.484Z,9.92
2017-09-15T04:38:57.606Z,9.94
2017-09-15T04:39:57.417Z,9.94
2017-09-15T04:40:57.384Z,10.01
2017-09-15T04:41:57.351Z,9.99
2017-09-15T04:42:57.317Z,9.94
2017-09-15T04:43:57.740Z,9.94
2017-09-15T04:44:57.250Z,9.98
2017-09-15T04:45:57.220Z,9.95
2017-09-15T04:46:57.183Z,9.94
2017-09-15T04:47:57.152Z,9.91
2017-09-15T04:48:57.116Z,9.98
2017-09-15T04:49:57.082Z,9.95
2017-09-15T04:50:57.048Z,9.97
2017-09-15T04:51:57.016Z,9.95
2017-09-15T04:52:56.983Z,9.92
2017-09-15T04:53:56.949Z,9.94
2017-09-15T04:54:56.913Z,9.95
2017-09-15T04:55:56.972Z,9.99
2017-09-15T04:56:56.850Z,10.01
2017-09-15T04:57:56.815Z,9.95
2017-09-15T04:58:56.782Z,9.95
2017-09-15T04:59:56.975Z,9.99
2017-09-15T05:00:56.715Z,9.99
2017-09-15T05:01:56.681Z,9.92
2017-09-15T05:02:56.649Z,9.97
2017-09-15T05:03:56.615Z,9.99
2017-09-15T05:04:56.583Z,9.95
2017-09-15T05:05:56.548Z,10.10
2017-09-15T05:06:56.513Z,10.02
2017-09-15T05:07:56.480Z,10.09
2017-09-15T05:08:56.450Z,10.12
2017-09-15T05:09:56.414Z,10.10
2017-09-15T05:10:56.380Z,10.02
2017-09-15T05:11:56.347Z,10.16
2017-09-15T05:12:56.314Z,10.13
2017-09-15T05:13:56.284Z,10.22
2017-09-15T05:14:56.249Z,10.13
2017-09-15T05:15:56.215Z,10.19
2017-09-15T05:16:56.179Z,10.22
2017-09-15T05:17:56.153Z,10.23
2017-09-15T05:18:56.116Z,10.19
2017-09-15T05:19:56.132Z,10.22
2017-09-15T05:20:56.049Z,10.26
2017-09-15T05:21:56.016Z,10.20
2017-09-15T05:22:55.982Z,10.19
2017-09-15T05:23:55.949Z,10.25
2017-09-15T05:24:55.911Z,10.25
2017-09-15T05:25:55.883Z,10.22
2017-09-15T05:26:55.847Z,10.19
2017-09-15T05:27:55.817Z,10.07
2017-09-15T05:28:55.784Z,10.13
2017-09-15T05:29:55.751Z,10.01
2017-09-15T05:30:55.717Z,10.01
2017-09-15T05:31:55.679Z,10.05
2017-09-15T05:32:55.653Z,9.97
2017-09-15T05:33:55.618Z,9.92
2017-09-15T05:34:55.584Z,9.94
2017-09-15T05:35:55.553Z,9.99
2017-09-15T05:36:55.520Z,9.95
2017-09-15T05:37:55.485Z,9.98
2017-09-15T05:38:55.451Z,10.05
2017-09-15T05:39:55.723Z,9.98
2017-09-15T05:40:55.455Z,9.92
2017-09-15T05:41:55.352Z,9.97
2017-09-15T05:42:55.318Z,9.95
2017-09-15T05:43:55.286Z,9.97
2017-09-15T05:44:55.253Z,9.95
2017-09-15T05:45:55.218Z,9.92
2017-09-15T05:46:55.501Z,9.94
2017-09-15T05:47:55.151Z,9.92
2017-09-15T05:48:55.120Z,9.89
2017-09-15T05:49:55.085Z,9.84
2017-09-15T05:50:55.051Z,9.87
2017-09-15T05:51:55.019Z,9.87
2017-09-15T05:52:54.984Z,9.94
2017-09-15T05:53:54.951Z,9.86
2017-09-15T05:54:54.917Z,9.84
2017-09-15T05:55:54.884Z,9.86
2017-09-15T05:56:54.851Z,9.84
2017-09-15T05:57:54.818Z,9.83
2017-09-15T05:58:54.783Z,9.73
2017-09-15T05:59:54.750Z,9.80
2017-09-15T06:00:54.716Z,9.76
2017-09-15T06:01:54.683Z,9.74
2017-09-15T06:02:54.649Z,9.76
2017-09-15T06:03:54.618Z,9.76
2017-09-15T06:04:54.586Z,9.72
2017-09-15T06:05:54.579Z,9.68
2017-09-15T06:06:54.517Z,9.72
2017-09-15T06:07:54.481Z,9.72
2017-09-15T06:08:54.449Z,9.76
2017-09-15T06:09:54.413Z,9.79
2017-09-15T06:10:54.383Z,9.76
2017-09-15T06:11:54.350Z,9.73
2017-09-15T06:12:54.314Z,9.79
2017-09-15T06:13:54.281Z,9.74
2017-09-15T06:14:54.256Z,9.79
2017-09-15T06:15:54.212Z,9.83
2017-09-15T06:16:54.182Z,9.87
2017-09-15T06:17:54.146Z,9.84
2017-09-15T06:18:54.113Z,9.86
2017-09-15T06:19:54.079Z,9.82
2017-09-15T06:20:54.047Z,9.89
2017-09-15T06:21:54.014Z,9.89
2017-09-15T06:22:53.978Z,9.98
2017-09-15T06:23:53.945Z,9.92
2017-09-15T06:24:53.909Z,9.94
2017-09-15T06:25:53.879Z,10.05
2017-09-15T06:26:53.846Z,10.10
2017-09-15T06:27:53.824Z,10.07
2017-09-15T06:28:53.779Z,10.15
2017-09-15T06:29:53.744Z,10.19
2017-09-15T06:30:53.715Z,10.33
2017-09-15T06:31:53.679Z,10.38
2017-09-15T06:32:53.647Z,10.48
2017-09-15T06:33:53.613Z,10.60
2017-09-15T06:34:53.578Z,10.69
2017-09-15T06:35:53.546Z,10.90
2017-09-15T06:36:53.514Z,11.19
2017-09-15T06:37:53.478Z,11.32
2017-09-15T06:38:53.450Z,11.37
2017-09-15T06:39:53.416Z,11.52
2017-09-15T06:40:53.385Z,11.69
2017-09-15T06:41:53.350Z,11.75
2017-09-15T06:42:53.323Z,11.80
2017-09-15T06:43:53.290Z,11.81
2017-09-15T06:44:53.256Z,11.94
2017-09-15T06:45:53.221Z,12.09
2017-09-15T06:46:53.189Z,11.88
2017-09-15T06:47:53.169Z,12.03
2017-09-15T06:48:53.127Z,12.02
2017-09-15T06:49:53.094Z,12.03
2017-09-15T06:50:53.061Z,12.02
2017-09-15T06:51:53.031Z,12.07
2017-09-15T06:52:52.994Z,12.07
2017-09-15T06:53:52.968Z,12.02
2017-09-15T06:54:52.935Z,12.00
2017-09-15T06:55:52.905Z,12.07
2017-09-15T06:56:52.872Z,12.00
2017-09-15T06:57:52.843Z,12.03
2017-09-15T06:58:52.809Z,12.02
2017-09-15T06:59:52.782Z,12.07
2017-09-15T07:00:52.746Z,12.03
2017-09-15T07:01:52.714Z,12.03
2017-09-15T07:02:52.682Z,12.00
2017-09-15T07:03:52.652Z,11.99
2017-09-15T07:04:52.619Z,12.04
2017-09-15T07:05:52.587Z,12.20
2017-09-15T07:06:52.574Z,12.25
2017-09-15T07:07:52.526Z,12.40
2017-09-15T07:08:52.495Z,12.47
2017-09-15T07:09:52.464Z,12.54
2017-09-15T07:10:52.430Z,12.61
2017-09-15T07:11:52.400Z,12.68
2017-09-15T07:12:52.371Z,12.82
2017-09-15T07:13:52.336Z,13.05
2017-09-15T07:14:52.307Z,13.20
2017-09-15T07:15:52.276Z,13.23
2017-09-15T07:16:52.245Z,13.27
2017-09-15T07:17:52.217Z,13.25
2017-09-15T07:18:52.186Z,13.30
2017-09-15T07:19:52.156Z,13.37
2017-09-15T07:20:52.125Z,13.37
2017-09-15T07:21:52.096Z,13.39
2017-09-15T07:22:52.066Z,13.60
2017-09-15T07:23:52.037Z,13.60
2017-09-15T07:24:52.007Z,13.50
2017-09-15T07:25:51.976Z,13.57
2017-09-15T07:26:52.168Z,13.46
2017-09-15T07:27:51.918Z,13.53
2017-09-15T07:28:51.889Z,13.46
2017-09-15T07:29:51.859Z,13.59
2017-09-15T07:30:51.828Z,13.60
2017-09-15T07:31:51.799Z,13.62
2017-09-15T07:32:51.769Z,13.60
2017-09-15T07:33:51.739Z,13.59
2017-09-15T07:34:52.486Z,13.52
2017-09-15T07:35:51.680Z,13.57
2017-09-15T07:36:51.651Z,13.56
2017-09-15T07:37:51.620Z,13.53
2017-09-15T07:38:51.586Z,13.54
2017-09-15T07:39:51.563Z,13.49
2017-09-15T07:40:51.532Z,13.49
2017-09-15T07:41:51.501Z,13.35
2017-09-15T07:42:51.471Z,13.28
2017-09-15T07:43:51.440Z,13.28
2017-09-15T07:44:51.484Z,13.20
2017-09-15T07:45:51.379Z,13.09
2017-09-15T07:46:51.348Z,13.15
2017-09-15T07:47:51.315Z,13.19
2017-09-15T07:48:51.288Z,13.11
2017-09-15T07:49:51.257Z,13.13
2017-09-15T07:50:51.227Z,13.11
2017-09-15T07:51:51.196Z,13.12
2017-09-15T07:52:51.165Z,13.13
2017-09-15T07:53:51.135Z,13.27
2017-09-15T07:54:51.105Z,13.33
2017-09-15T07:55:51.074Z,13.46
2017-09-15T07:56:51.044Z,13.60
2017-09-15T07:57:51.013Z,13.68
2017-09-15T07:58:50.986Z,13.75
2017-09-15T07:59:50.953Z,13.72
2017-09-15T08:00:50.924Z,13.87
2017-09-15T08:01:50.891Z,13.89
2017-09-15T08:02:50.861Z,13.92
2017-09-15T08:03:50.831Z,13.87
2017-09-15T08:04:50.801Z,13.93
2017-09-15T08:05:50.771Z,13.97
2017-09-15T08:06:50.738Z,14.14
2017-09-15T08:07:50.710Z,14.20
2017-09-15T08:08:50.678Z,14.23
2017-09-15T08:09:50.650Z,14.36
2017-09-15T08:10:50.620Z,14.44
2017-09-15T08:11:50.589Z,14.51
2017-09-15T08:12:50.563Z,14.77
2017-09-15T08:13:50.533Z,14.70
2017-09-15T08:14:50.501Z,14.85
2017-09-15T08:15:50.471Z,14.96
2017-09-15T08:16:50.441Z,15.10
2017-09-15T08:17:50.410Z,15.24
2017-09-15T08:18:50.382Z,15.51
2017-09-15T08:19:50.353Z,15.52
2017-09-15T08:20:50.326Z,15.62
2017-09-15T08:21:50.295Z,15.84
2017-09-15T08:22:50.265Z,16.00
2017-09-15T08:23:50.237Z,16.12
2017-09-15T08:24:50.209Z,16.41
2017-09-15T08:25:50.179Z,16.47
2017-09-15T08:26:50.149Z,16.56
2017-09-15T08:27:50.121Z,16.43
2017-09-15T08:28:50.094Z,16.57
2017-09-15T08:29:50.064Z,16.71
2017-09-15T08:30:50.038Z,17.09
2017-09-15T08:31:50.009Z,17.23
2017-09-15T08:32:49.996Z,17.36
2017-09-15T08:33:49.954Z,17.29
2017-09-15T08:34:49.927Z,17.36
2017-09-15T08:35:49.900Z,17.64
2017-09-15T08:36:49.872Z,17.76
2017-09-15T08:37:49.847Z,17.76
2017-09-15T08:38:49.820Z,17.34
2017-09-15T08:39:49.795Z,17.42
2017-09-15T08:40:49.768Z,17.36
2017-09-15T08:41:49.742Z,17.63
2017-09-15T08:42:49.718Z,17.76
2017-09-15T08:43:49.690Z,18.11
2017-09-15T08:44:49.666Z,18.43
2017-09-15T08:45:49.640Z,18.56
2017-09-15T08:46:49.870Z,18.78
2017-09-15T08:47:49.591Z,18.52
2017-09-15T08:48:49.566Z,18.31
2017-09-15T08:49:49.547Z,18.60
2017-09-15T08:50:49.516Z,18.78
2017-09-15T08:51:49.491Z,19.02
2017-09-15T08:52:49.469Z,19.48
2017-09-15T08:53:49.443Z,19.71
2017-09-15T08:54:49.422Z,19.89
2017-09-15T08:55:49.401Z,20.36
2017-09-15T08:56:49.378Z,20.77
2017-09-15T08:57:49.353Z,21.09
2017-09-15T08:58:49.332Z,21.27
2017-09-15T08:59:49.309Z,21.18
2017-09-15T09:00:49.289Z,21.21
2017-09-15T09:01:49.268Z,20.75
2017-09-15T09:02:49.252Z,20.43
2017-09-15T09:03:49.228Z,20.00
2017-09-15T09:04:49.208Z,19.63
2017-09-15T09:05:49.186Z,19.26
2017-09-15T09:06:49.166Z,18.83
2017-09-15T09:07:49.148Z,18.84
2017-09-15T09:08:49.127Z,18.78
2017-09-15T09:09:49.105Z,18.70
2017-09-15T09:10:49.081Z,18.90
2017-09-15T09:11:49.062Z,18.50
2017-09-15T09:12:49.041Z,18.16
2017-09-15T09:13:49.017Z,18.00
2017-09-15T09:14:48.995Z,18.10
2017-09-15T09:15:48.972Z,18.43
2017-09-15T09:16:48.953Z,18.62
2017-09-15T09:17:48.927Z,19.08
2017-09-15T09:18:48.904Z,19.08
2017-09-15T09:19:48.882Z,18.68
2017-09-15T09:20:48.861Z,18.35
2017-09-15T09:21:48.837Z,18.23
2017-09-15T09:22:48.815Z,18.07
2017-09-15T09:23:48.792Z,18.31
2017-09-15T09:24:48.769Z,18.50
2017-09-15T09:25:48.744Z,18.52
2017-09-15T09:26:48.721Z,18.52
2017-09-15T09:27:48.699Z,18.44
2017-09-15T09:28:48.674Z,18.16
2017-09-15T09:29:48.654Z,18.33
2017-09-15T09:30:48.628Z,18.44
2017-09-15T09:31:48.605Z,18.00
2017-09-15T09:32:48.579Z,17.79
2017-09-15T09:33:48.556Z,17.23
2017-09-15T09:34:48.530Z,17.14
2017-09-15T09:35:48.507Z,16.76
2017-09-15T09:36:48.480Z,16.64
2017-09-15T09:37:48.453Z,16.51
2017-09-15T09:38:48.428Z,16.42
2017-09-15T09:39:48.402Z,16.29
2017-09-15T09:40:48.376Z,16.15
2017-09-15T09:41:48.351Z,16.24
2017-09-15T09:42:48.321Z,15.88
2017-09-15T09:43:48.295Z,15.84
2017-09-15T09:44:48.952Z,15.79
2017-09-15T09:45:48.239Z,15.75
2017-09-15T09:46:48.216Z,15.59
2017-09-15T09:47:48.183Z,15.54
2017-09-15T09:48:48.155Z,15.28
2017-09-15T09:49:48.127Z,15.19
2017-09-15T09:50:48.107Z,15.18
2017-09-15T09:51:48.071Z,15.24
2017-09-15T09:52:48.043Z,15.22
2017-09-15T09:53:48.014Z,15.03
2017-09-15T09:54:47.984Z,14.84
2017-09-15T09:55:47.955Z,14.63
2017-09-15T09:56:47.927Z,14.50
2017-09-15T09:57:47.896Z,14.45
2017-09-15T09:58:47.867Z,14.23
2017-09-15T09:59:47.839Z,14.28
2017-09-15T10:00:47.808Z,14.18
2017-09-15T10:01:47.781Z,14.14
2017-09-15T10:02:47.750Z,14.17
2017-09-15T10:03:47.721Z,14.20
2017-09-15T10:04:47.691Z,14.17
2017-09-15T10:05:47.662Z,14.20
2017-09-15T10:06:47.632Z,14.15
2017-09-15T10:07:47.603Z,14.37
2017-09-15T10:08:47.597Z,14.45
2017-09-15T10:09:47.542Z,14.70
2017-09-15T10:10:47.512Z,14.77
2017-09-15T10:11:47.484Z,14.91
2017-09-15T10:12:47.455Z,15.10
2017-09-15T10:13:47.425Z,15.57
2017-09-15T10:14:47.396Z,16.33
2017-09-15T10:15:47.368Z,17.08
2017-09-15T10:16:47.341Z,17.78
2017-09-15T10:17:47.312Z,18.15
2017-09-15T10:18:47.287Z,18.31
2017-09-15T10:19:47.262Z,18.44
2017-09-15T10:20:47.236Z,18.58
2017-09-15T10:21:47.212Z,19.02
2017-09-15T10:22:47.190Z,19.21
2017-09-15T10:23:47.163Z,19.49
2017-09-15T10:24:47.137Z,19.73
2017-09-15T10:25:47.118Z,19.54
2017-09-15T10:26:47.093Z,19.45
2017-09-15T10:27:47.074Z,19.15
2017-09-15T10:28:47.049Z,18.95
2017-09-15T10:29:47.025Z,18.43
2017-09-15T10:30:47.003Z,18.16
2017-09-15T10:31:46.979Z,17.85
2017-09-15T10:32:46.956Z,17.70
2017-09-15T10:33:46.933Z,18.04
2017-09-15T10:34:46.906Z,18.70
2017-09-15T10:35:46.885Z,19.16
2017-09-15T10:36:46.863Z,19.30
2017-09-15T10:37:46.838Z,19.79
2017-09-15T10:38:46.816Z,20.10
2017-09-15T10:39:46.794Z,20.50
2017-09-15T10:40:46.773Z,21.00
2017-09-15T10:41:46.749Z,20.97
2017-09-15T10:42:46.729Z,20.65
2017-09-15T10:43:46.709Z,20.90
2017-09-15T10:44:46.687Z,21.05
2017-09-15T10:45:46.665Z,21.07
2017-09-15T10:46:46.644Z,20.74
2017-09-15T10:47:46.623Z,20.03
2017-09-15T10:48:46.604Z,19.62
2017-09-15T10:49:46.579Z,19.31
2017-09-15T10:50:46.558Z,18.98
2017-09-15T10:51:46.536Z,18.66
2017-09-15T10:52:46.518Z,18.55
2017-09-15T10:53:46.490Z,18.16
2017-09-15T10:54:46.468Z,17.95
2017-09-15T10:55:46.459Z,17.68
2017-09-15T10:56:46.422Z,17.67
2017-09-15T10:57:46.396Z,17.52
2017-09-15T10:58:46.373Z,17.45
2017-09-15T10:59:46.605Z,17.51
2017-09-15T11:00:46.322Z,17.64
2017-09-15T11:01:46.297Z,18.40
2017-09-15T11:02:46.732Z,19.00
2017-09-15T11:03:46.249Z,19.59
2017-09-15T11:04:46.224Z,19.96
2017-09-15T11:05:46.199Z,20.55
2017-09-15T11:06:46.176Z,20.75
2017-09-15T11:07:46.152Z,20.13
2017-09-15T11:08:46.128Z,19.39
2017-09-15T11:09:46.105Z,18.56
2017-09-15T11:10:46.079Z,18.22
2017-09-15T11:11:46.058Z,17.97
2017-09-15T11:12:46.032Z,17.71
2017-09-15T11:13:46.010Z,17.46
2017-09-15T11:14:45.982Z,17.41
2017-09-15T11:15:45.955Z,17.12
2017-09-15T11:16:45.930Z,16.91
2017-09-15T11:17:45.902Z,16.69
2017-09-15T11:18:45.877Z,16.69
2017-09-15T11:19:45.851Z,16.68
2017-09-15T11:20:45.832Z,16.83
2017-09-15T11:21:45.796Z,16.94
2017-09-15T11:22:45.770Z,17.05
2017-09-15T11:23:45.738Z,17.52
2017-09-15T11:24:45.718Z,18.31
2017-09-15T11:25:45.691Z,19.56
2017-09-15T11:26:45.665Z,20.43
2017-09-15T11:27:45.641Z,21.12
2017-09-15T11:28:45.616Z,21.20
2017-09-15T11:29:45.589Z,21.06
2017-09-15T11:30:45.568Z,21.30
2017-09-15T11:31:45.544Z,22.22
2017-09-15T11:32:45.520Z,22.39
2017-09-15T11:33:45.497Z,22.10
2017-09-15T11:34:45.473Z,21.93
2017-09-15T11:35:45.453Z,21.99
2017-09-15T11:36:45.430Z,22.22
2017-09-15T11:37:45.407Z,21.99
2017-09-15T11:38:45.387Z,21.33
2017-09-15T11:39:45.365Z,20.97
2017-09-15T11:40:45.343Z,21.37
2017-09-15T11:41:45.322Z,22.38
2017-09-15T11:42:45.299Z,22.41
2017-09-15T11:43:45.278Z,22.70
2017-09-15T11:44:45.257Z,23.12
2017-09-15T11:45:45.237Z,23.54
2017-09-15T11:46:45.215Z,23.55
2017-09-15T11:47:45.195Z,23.47
2017-09-15T11:48:45.173Z,23.21
2017-09-15T11:49:45.152Z,22.76
2017-09-15T11:50:45.132Z,22.84
2017-09-15T11:51:45.124Z,23.13
2017-09-15T11:52:45.096Z,23.66
2017-09-15T11:53:45.073Z,23.95
2017-09-15T11:54:45.053Z,23.66
2017-09-15T11:55:45.034Z,23.09
2017-09-15T11:56:45.016Z,23.21
2017-09-15T11:57:44.996Z,22.75
2017-09-15T11:58:44.976Z,21.92
2017-09-15T11:59:44.955Z,21.82
2017-09-15T12:00:44.936Z,21.70
2017-09-15T12:01:44.925Z,21.83
2017-09-15T12:02:44.896Z,21.70
2017-09-15T12:03:44.877Z,21.12
2017-09-15T12:04:44.860Z,20.50
2017-09-15T12:05:44.833Z,20.67
2017-09-15T12:06:44.812Z,20.75
2017-09-15T12:07:44.791Z,20.32
2017-09-15T12:08:44.771Z,20.62
2017-09-15T12:09:44.781Z,21.09
2017-09-15T12:10:44.725Z,21.35
2017-09-15T12:11:44.703Z,20.99
2017-09-15T12:12:44.686Z,20.97
2017-09-15T12:13:44.657Z,20.66
2017-09-15T12:14:44.640Z,19.95
2017-09-15T12:15:44.616Z,19.52
2017-09-15T12:16:44.594Z,19.22
2017-09-15T12:17:44.571Z,18.81
2017-09-15T12:18:44.548Z,18.50
2017-09-15T12:19:44.524Z,18.45
2017-09-15T12:20:44.501Z,18.44
2017-09-15T12:21:44.477Z,18.37
2017-09-15T12:22:44.453Z,18.40
2017-09-15T12:23:44.430Z,18.33
2017-09-15T12:24:44.404Z,18.34
2017-09-15T12:25:44.380Z,18.47
2017-09-15T12:26:44.356Z,18.66
2017-09-15T12:27:44.334Z,18.78
2017-09-15T12:28:44.309Z,18.73
2017-09-15T12:29:44.284Z,19.21
2017-09-15T12:30:44.260Z,20.00
2017-09-15T12:31:44.237Z,20.74
2017-09-15T12:32:44.214Z,20.92
2017-09-15T12:33:44.190Z,20.63
2017-09-15T12:34:44.168Z,20.65
2017-09-15T12:35:44.143Z,20.55
2017-09-15T12:36:44.121Z,20.41
2017-09-15T12:37:44.702Z,20.77
2017-09-15T12:38:44.074Z,21.00
2017-09-15T12:39:44.050Z,21.42
2017-09-15T12:40:44.031Z,21.66
2017-09-15T12:41:44.016Z,21.73
2017-09-15T12:42:43.983Z,21.51
2017-09-15T12:43:43.966Z,21.29
2017-09-15T12:44:43.939Z,20.96
2017-09-15T12:45:43.916Z,20.50
2017-09-15T12:46:43.895Z,19.95
2017-09-15T12:47:44.033Z,19.39
2017-09-15T12:48:43.849Z,19.12
2017-09-15T12:49:43.825Z,18.59
2017-09-15T12:50:43.799Z,18.75
2017-09-15T12:51:43.785Z,18.78
2017-09-15T12:52:43.757Z,18.90
2017-09-15T12:53:43.731Z,18.96
2017-09-15T12:54:43.708Z,19.27
2017-09-15T12:55:43.685Z,19.56
2017-09-15T12:56:45.094Z,20.84
2017-09-15T12:57:43.637Z,22.00
2017-09-15T12:58:43.614Z,22.69
2017-09-15T12:59:43.588Z,23.78
2017-09-15T13:00:43.574Z,23.55